createdAt,value
2018-03-27T00:00:24.653Z,4.62
2018-03-27T00:02:52.326Z,4.53
2018-03-27T00:05:20.039Z,4.68
2018-03-27T00:07:47.668Z,4.68
2018-03-27T00:10:15.276Z,4.23
2018-03-27T00:12:42.920Z,4.22
2018-03-27T00:15:10.546Z,4.65
2018-03-27T00:17:38.201Z,4.28
2018-03-27T00:20:06.597Z,3.92
2018-03-27T00:22:34.249Z,4.60
2018-03-27T00:25:02.615Z,4.40
2018-03-27T00:27:41.984Z,4.65
2018-03-27T00:30:21.440Z,4.25
2018-03-27T00:33:01.007Z,4.37
2018-03-27T00:35:40.627Z,5.00
2018-03-27T00:38:20.189Z,4.55
2018-03-27T00:40:47.363Z,4.22
2018-03-27T00:43:14.986Z,4.05
2018-03-27T00:45:42.650Z,5.35
2018-03-27T00:48:10.320Z,4.40
2018-03-27T00:50:38.540Z,3.95
2018-03-27T00:53:06.188Z,4.70
2018-03-27T00:55:33.836Z,4.72
2018-03-27T00:58:01.445Z,5.15
2018-03-27T01:00:29.080Z,4.37
2018-03-27T01:02:56.723Z,4.45
2018-03-27T01:05:24.371Z,4.33
2018-03-27T01:07:52.013Z,4.40
2018-03-27T01:10:20.392Z,4.60
2018-03-27T01:12:48.815Z,4.57
2018-03-27T01:15:16.464Z,4.15
2018-03-27T01:17:44.897Z,4.28
2018-03-27T01:20:12.512Z,4.20
2018-03-27T01:22:40.952Z,4.30
2018-03-27T01:25:08.544Z,4.20
2018-03-27T01:27:36.507Z,4.45
2018-03-27T01:30:05.626Z,4.47
2018-03-27T01:32:34.252Z,4.62
2018-03-27T01:35:01.930Z,4.37
2018-03-27T01:37:30.217Z,4.25
2018-03-27T01:39:57.829Z,4.62
2018-03-27T01:42:25.524Z,4.72
2018-03-27T01:44:53.443Z,4.50
2018-03-27T01:47:21.045Z,4.28
2018-03-27T01:49:49.422Z,4.00
2018-03-27T01:52:17.863Z,4.28
2018-03-27T01:54:45.491Z,4.30
2018-03-27T01:57:13.079Z,4.03
2018-03-27T01:59:40.703Z,4.30
2018-03-27T02:02:09.063Z,4.10
2018-03-27T02:04:36.708Z,4.50
2018-03-27T02:07:05.077Z,4.50
2018-03-27T02:09:32.961Z,4.20
2018-03-27T02:12:06.239Z,4.10
2018-03-27T02:14:39.648Z,4.00
2018-03-27T02:17:12.843Z,4.12
2018-03-27T02:19:46.119Z,4.40
2018-03-27T02:22:13.730Z,4.45
2018-03-27T02:24:42.491Z,4.25
2018-03-27T02:27:10.130Z,4.20
2018-03-27T02:29:38.488Z,4.10
2018-03-27T02:32:06.900Z,3.83
2018-03-27T02:34:34.542Z,4.40
2018-03-27T02:37:02.183Z,4.45
2018-03-27T02:39:29.821Z,4.20
2018-03-27T02:41:57.474Z,4.30
2018-03-27T02:44:25.096Z,4.25
2018-03-27T02:46:53.476Z,4.80
2018-03-27T02:49:21.954Z,4.65
2018-03-27T02:51:49.612Z,4.37
2018-03-27T02:54:17.266Z,4.35
2018-03-27T02:56:44.907Z,4.12
2018-03-27T02:59:12.505Z,4.18
2018-03-27T03:01:40.184Z,4.45
2018-03-27T03:04:07.810Z,4.47
2018-03-27T03:06:35.463Z,5.12
2018-03-27T03:09:03.134Z,4.45
2018-03-27T03:11:30.768Z,4.20
2018-03-27T03:13:58.407Z,4.35
2018-03-27T03:16:26.195Z,4.32
2018-03-27T03:18:53.833Z,4.32
2018-03-27T03:21:21.448Z,4.80
2018-03-27T03:23:50.161Z,4.87
2018-03-27T03:26:17.771Z,4.22
2018-03-27T03:28:45.378Z,4.10
2018-03-27T03:31:13.824Z,4.25
2018-03-27T03:33:41.451Z,4.87
2018-03-27T03:36:09.142Z,4.97
2018-03-27T03:38:36.751Z,4.37
2018-03-27T03:41:04.380Z,4.78
2018-03-27T03:43:32.321Z,4.68
2018-03-27T03:45:59.925Z,5.00
2018-03-27T03:48:27.542Z,4.85
2018-03-27T03:50:55.951Z,4.75
2018-03-27T03:53:23.582Z,5.32
2018-03-27T03:55:51.960Z,4.68
2018-03-27T03:58:20.350Z,4.82
2018-03-27T04:00:48.005Z,4.87
2018-03-27T04:03:15.605Z,4.85
2018-03-27T04:05:44.148Z,4.60
2018-03-27T04:08:13.373Z,5.40
2018-03-27T04:10:41.744Z,4.55
2018-03-27T04:13:10.135Z,4.47
2018-03-27T04:15:38.517Z,4.70
2018-03-27T04:18:06.878Z,4.65
2018-03-27T04:20:34.513Z,4.50
2018-03-27T04:23:02.151Z,4.65
2018-03-27T04:25:30.120Z,5.28
2018-03-27T04:27:58.511Z,5.07
2018-03-27T04:30:26.106Z,4.60
2018-03-27T04:32:53.770Z,4.68
2018-03-27T04:35:21.385Z,4.75
2018-03-27T04:37:49.874Z,4.35
2018-03-27T04:40:18.268Z,4.87
2018-03-27T04:42:46.681Z,5.07
2018-03-27T04:45:14.317Z,5.10
2018-03-27T04:47:42.667Z,5.00
2018-03-27T04:50:10.293Z,5.05
2018-03-27T04:52:37.952Z,4.80
2018-03-27T04:55:05.653Z,4.90
2018-03-27T04:57:33.315Z,5.47
2018-03-27T05:00:01.120Z,5.10
2018-03-27T05:02:29.531Z,4.75
2018-03-27T05:04:57.134Z,4.70
2018-03-27T05:07:24.854Z,5.53
2018-03-27T05:09:52.457Z,6.40
2018-03-27T05:12:20.176Z,5.07
2018-03-27T05:14:47.781Z,4.68
2018-03-27T05:17:15.505Z,5.18
2018-03-27T05:19:43.288Z,5.45
2018-03-27T05:22:11.127Z,5.30
2018-03-27T05:24:39.564Z,5.20
2018-03-27T05:27:07.230Z,5.70
2018-03-27T05:29:34.852Z,5.07
2018-03-27T05:32:02.493Z,4.97
2018-03-27T05:34:30.103Z,4.97
2018-03-27T05:36:58.518Z,6.10
2018-03-27T05:39:26.210Z,5.60
2018-03-27T05:41:53.870Z,5.60
2018-03-27T05:44:21.501Z,5.35
2018-03-27T05:46:49.113Z,5.82
2018-03-27T05:49:16.749Z,5.10
2018-03-27T05:51:44.392Z,5.70
2018-03-27T05:54:12.294Z,5.78
2018-03-27T05:56:39.924Z,5.87
2018-03-27T05:59:07.542Z,6.62
2018-03-27T06:01:35.994Z,5.87
2018-03-27T06:04:04.423Z,5.95
2018-03-27T06:06:32.091Z,5.78
2018-03-27T06:08:59.762Z,6.40
2018-03-27T06:11:27.391Z,5.67
2018-03-27T06:13:55.041Z,6.00
2018-03-27T06:16:23.485Z,6.57
2018-03-27T06:18:51.149Z,5.95
2018-03-27T06:21:18.792Z,6.03
2018-03-27T06:23:46.519Z,6.75
2018-03-27T06:26:14.516Z,6.60
2018-03-27T06:28:46.273Z,6.93
2018-03-27T06:31:13.948Z,6.95
2018-03-27T06:33:41.589Z,6.40
2018-03-27T06:36:10.335Z,6.85
2018-03-27T06:38:37.942Z,8.13
2018-03-27T06:41:05.640Z,7.82
2018-03-27T06:43:33.339Z,7.15
2018-03-27T06:46:01.760Z,6.32
2018-03-27T06:48:30.194Z,7.53
2018-03-27T06:50:57.802Z,7.37
2018-03-27T06:53:26.237Z,7.68
2018-03-27T06:55:54.009Z,7.63
2018-03-27T06:58:21.864Z,9.50
2018-03-27T07:00:49.526Z,9.75
2018-03-27T07:03:17.153Z,7.43
2018-03-27T07:05:45.219Z,7.43
2018-03-27T07:08:12.829Z,7.82
2018-03-27T07:10:40.489Z,6.70
2018-03-27T07:13:09.028Z,7.87
2018-03-27T07:15:36.687Z,8.55
2018-03-27T07:18:04.323Z,8.55
2018-03-27T07:20:31.976Z,8.38
2018-03-27T07:22:59.756Z,7.87
2018-03-27T07:25:27.395Z,9.70
2018-03-27T07:27:55.818Z,8.50
2018-03-27T07:30:23.459Z,9.13
2018-03-27T07:32:51.182Z,8.40
2018-03-27T07:35:18.858Z,8.10
2018-03-27T07:37:46.473Z,8.25
2018-03-27T07:40:14.169Z,7.78
2018-03-27T07:42:42.435Z,7.05
2018-03-27T07:45:10.043Z,7.00
2018-03-27T07:47:37.677Z,5.97
2018-03-27T07:50:05.300Z,7.07
2018-03-27T07:52:32.944Z,7.03
2018-03-27T07:55:00.581Z,6.05
2018-03-27T07:57:28.212Z,5.90
2018-03-27T07:59:56.715Z,6.53
2018-03-27T08:02:24.376Z,6.10
2018-03-27T08:04:52.932Z,5.85
2018-03-27T08:07:20.661Z,6.07
2018-03-27T08:09:48.577Z,4.85
2018-03-27T08:12:16.206Z,5.28
2018-03-27T08:14:43.850Z,6.18
2018-03-27T08:17:11.537Z,5.43
2018-03-27T08:19:39.196Z,5.37
2018-03-27T08:22:07.208Z,6.10
2018-03-27T08:24:34.828Z,4.12
2018-03-27T08:27:02.432Z,6.72
2018-03-27T08:29:30.201Z,5.57
2018-03-27T08:31:57.826Z,5.00
2018-03-27T08:34:25.421Z,5.37
2018-03-27T08:36:53.070Z,5.62
2018-03-27T08:39:21.347Z,5.03
2018-03-27T08:41:49.044Z,5.25
2018-03-27T08:44:16.750Z,5.45
2018-03-27T08:46:45.163Z,4.93
2018-03-27T08:49:12.848Z,5.15
2018-03-27T08:51:40.466Z,5.45
2018-03-27T08:54:08.903Z,4.93
2018-03-27T08:56:36.545Z,5.50
2018-03-27T08:59:04.262Z,4.85
2018-03-27T09:01:31.846Z,4.93
2018-03-27T09:04:00.330Z,4.53
2018-03-27T09:06:28.748Z,4.90
2018-03-27T09:08:56.343Z,4.80
2018-03-27T09:11:23.994Z,5.93
2018-03-27T09:13:51.632Z,5.53
2018-03-27T09:16:19.277Z,4.82
2018-03-27T09:18:47.655Z,5.53
2018-03-27T09:21:16.590Z,5.03
2018-03-27T09:23:44.261Z,5.03
2018-03-27T09:26:11.916Z,6.28
2018-03-27T09:28:39.630Z,5.57
2018-03-27T09:31:07.276Z,5.85
2018-03-27T09:33:34.937Z,6.65
2018-03-27T09:36:02.559Z,6.65
2018-03-27T09:38:30.235Z,5.65
2018-03-27T09:40:58.667Z,5.68
2018-03-27T09:43:27.189Z,7.28
2018-03-27T09:45:55.583Z,6.20
2018-03-27T09:48:23.973Z,6.57
2018-03-27T09:50:52.390Z,4.93
2018-03-27T09:53:20.076Z,5.22
2018-03-27T09:55:47.768Z,5.75
2018-03-27T09:58:15.389Z,6.00
2018-03-27T10:00:48.679Z,6.85
2018-03-27T10:03:16.353Z,5.47
2018-03-27T10:05:44.018Z,6.87
2018-03-27T10:08:11.648Z,8.60
2018-03-27T10:10:39.257Z,7.03
2018-03-27T10:13:06.919Z,6.93
2018-03-27T10:15:34.571Z,4.85
2018-03-27T10:18:02.189Z,5.25
2018-03-27T10:20:29.831Z,5.93
2018-03-27T10:22:57.490Z,5.60
2018-03-27T10:25:25.135Z,6.40
2018-03-27T10:27:52.833Z,6.53
2018-03-27T10:30:20.521Z,5.72
2018-03-27T10:32:48.152Z,6.70
2018-03-27T10:35:15.815Z,7.65
2018-03-27T10:37:43.482Z,6.20
2018-03-27T10:40:11.462Z,6.95
2018-03-27T10:42:39.077Z,7.00
2018-03-27T10:45:07.488Z,5.97
2018-03-27T10:47:35.124Z,6.90
2018-03-27T10:50:03.715Z,7.03
2018-03-27T10:52:32.128Z,5.18
2018-03-27T10:55:00.536Z,7.47
2018-03-27T10:57:28.177Z,5.68
2018-03-27T10:59:55.815Z,5.70
2018-03-27T11:02:25.748Z,5.70
2018-03-27T11:04:53.414Z,6.65
2018-03-27T11:07:21.117Z,6.15
2018-03-27T11:09:48.727Z,6.00
2018-03-27T11:12:16.402Z,5.30
2018-03-27T11:14:44.799Z,5.50
2018-03-27T11:17:13.246Z,5.32
2018-03-27T11:19:40.859Z,4.40
2018-03-27T11:22:09.301Z,5.78
2018-03-27T11:24:36.912Z,5.43
2018-03-27T11:27:04.598Z,4.70
2018-03-27T11:29:32.229Z,4.60
2018-03-27T11:31:59.896Z,5.03
2018-03-27T11:34:28.315Z,4.90
2018-03-27T11:36:55.969Z,4.93
2018-03-27T11:39:24.521Z,5.20
2018-03-27T11:41:52.401Z,5.20
2018-03-27T11:44:20.051Z,5.22
2018-03-27T11:46:47.728Z,4.63
2018-03-27T11:49:15.351Z,4.32
2018-03-27T11:51:43.006Z,5.45
2018-03-27T11:54:10.615Z,4.18
2018-03-27T11:56:38.270Z,4.22
2018-03-27T11:59:05.953Z,3.58
2018-03-27T12:01:34.457Z,4.60
2018-03-27T12:04:02.865Z,4.72
2018-03-27T12:06:31.282Z,4.30
2018-03-27T12:08:58.955Z,4.43
2018-03-27T12:11:26.648Z,4.72
2018-03-27T12:13:54.295Z,4.47
2018-03-27T12:16:21.970Z,4.57
2018-03-27T12:18:49.659Z,5.75
2018-03-27T12:21:17.346Z,4.80
2018-03-27T12:23:44.989Z,4.65
2018-03-27T12:26:12.664Z,4.62
2018-03-27T12:28:41.039Z,4.87
2018-03-27T12:31:08.701Z,4.35
2018-03-27T12:33:36.351Z,4.47
2018-03-27T12:36:04.040Z,4.87
2018-03-27T12:38:31.672Z,4.43
2018-03-27T12:40:59.339Z,3.90
2018-03-27T12:43:26.992Z,3.92
2018-03-27T12:45:54.652Z,4.22
2018-03-27T12:48:22.268Z,4.20
2018-03-27T12:50:50.793Z,4.25
2018-03-27T12:53:18.496Z,4.65
2018-03-27T12:55:46.129Z,4.50
2018-03-27T12:58:14.515Z,4.95
2018-03-27T13:00:42.880Z,4.00
2018-03-27T13:03:11.303Z,4.53
2018-03-27T13:05:38.940Z,4.68
2018-03-27T13:08:06.613Z,4.47
2018-03-27T13:10:34.299Z,4.03
2018-03-27T13:13:02.703Z,4.07
2018-03-27T13:15:30.391Z,4.90
2018-03-27T13:17:58.010Z,3.92
2018-03-27T13:20:25.992Z,5.55
2018-03-27T13:22:53.627Z,3.67
2018-03-27T13:25:21.295Z,3.90
2018-03-27T13:27:49.689Z,4.28
2018-03-27T13:30:18.116Z,4.60
2018-03-27T13:32:45.751Z,4.22
2018-03-27T13:35:13.370Z,3.87
2018-03-27T13:37:42.122Z,3.83
2018-03-27T13:40:09.741Z,4.03
2018-03-27T13:42:38.126Z,5.00
2018-03-27T13:45:05.766Z,4.40
2018-03-27T13:47:34.137Z,4.50
2018-03-27T13:50:01.769Z,4.28
2018-03-27T13:52:29.399Z,4.12
2018-03-27T13:54:57.805Z,3.50
2018-03-27T13:57:25.448Z,3.50
2018-03-27T13:59:53.838Z,3.70
2018-03-27T14:02:21.476Z,4.82
2018-03-27T14:04:49.120Z,4.68
2018-03-27T14:07:16.802Z,3.67
2018-03-27T14:09:44.443Z,4.35
2018-03-27T14:12:12.134Z,4.07
2018-03-27T14:14:39.789Z,4.62
2018-03-27T14:17:07.440Z,4.50
2018-03-27T14:19:35.121Z,5.80
2018-03-27T14:22:02.752Z,5.05
2018-03-27T14:24:30.418Z,3.47
2018-03-27T14:26:58.084Z,4.50
2018-03-27T14:29:25.773Z,3.75
2018-03-27T14:31:53.444Z,4.12
2018-03-27T14:34:21.096Z,4.35
2018-03-27T14:36:48.721Z,4.57
2018-03-27T14:39:17.150Z,4.18
2018-03-27T14:41:45.511Z,3.80
2018-03-27T14:44:13.181Z,3.67
2018-03-27T14:46:40.848Z,3.67
2018-03-27T14:49:08.498Z,3.33
2018-03-27T14:51:36.163Z,3.45
2018-03-27T14:54:04.572Z,3.83
2018-03-27T14:56:32.188Z,3.42
2018-03-27T14:58:59.876Z,3.58
2018-03-27T15:01:27.554Z,5.10
2018-03-27T15:03:55.202Z,3.83
2018-03-27T15:06:23.617Z,4.30
2018-03-27T15:08:51.272Z,3.40
2018-03-27T15:11:19.674Z,3.53
2018-03-27T15:13:47.317Z,3.42
2018-03-27T15:16:15.683Z,4.25
2018-03-27T15:18:43.337Z,3.95
2018-03-27T15:21:10.945Z,4.15
2018-03-27T15:23:38.615Z,4.10
2018-03-27T15:26:06.265Z,3.80
2018-03-27T15:28:34.673Z,4.15
2018-03-27T15:31:02.352Z,3.90
2018-03-27T15:33:30.070Z,4.07
2018-03-27T15:35:57.660Z,4.68
2018-03-27T15:38:26.081Z,4.03
2018-03-27T15:40:53.924Z,4.27
2018-03-27T15:43:21.630Z,4.28
2018-03-27T15:45:49.270Z,4.22
2018-03-27T15:48:16.928Z,4.47
2018-03-27T15:50:44.539Z,3.80
2018-03-27T15:53:12.199Z,4.50
2018-03-27T15:55:39.887Z,4.37
2018-03-27T15:58:07.544Z,4.25
2018-03-27T16:00:35.169Z,3.67
2018-03-27T16:03:02.809Z,4.07
2018-03-27T16:05:31.212Z,3.90
2018-03-27T16:07:58.839Z,4.18
2018-03-27T16:10:26.528Z,4.03
2018-03-27T16:12:54.952Z,3.90
2018-03-27T16:15:22.639Z,4.00
2018-03-27T16:17:50.302Z,4.35
2018-03-27T16:20:17.964Z,3.83
2018-03-27T16:22:45.600Z,3.50
2018-03-27T16:25:13.282Z,3.83
2018-03-27T16:27:41.231Z,4.00
2018-03-27T16:30:08.918Z,4.87
2018-03-27T16:32:36.823Z,4.28
2018-03-27T16:35:04.504Z,3.65
2018-03-27T16:37:32.128Z,4.47
2018-03-27T16:39:59.769Z,4.20
2018-03-27T16:42:28.215Z,4.35
2018-03-27T16:44:55.837Z,3.87
2018-03-27T16:47:23.931Z,4.12
2018-03-27T16:49:51.657Z,4.22
2018-03-27T16:52:20.026Z,3.95
2018-03-27T16:54:48.980Z,4.00
2018-03-27T16:57:17.295Z,3.92
2018-03-27T16:59:45.023Z,3.87
2018-03-27T17:02:12.639Z,4.20
2018-03-27T17:04:41.752Z,4.12
2018-03-27T17:07:10.197Z,4.18
2018-03-27T17:09:55.629Z,5.18
2018-03-27T17:12:23.288Z,4.43
2018-03-27T17:14:50.926Z,4.40
2018-03-27T17:17:18.564Z,4.32
2018-03-27T17:19:46.226Z,4.37
2018-03-27T17:22:13.843Z,4.30
2018-03-27T17:24:41.500Z,4.35
2018-03-27T17:27:09.949Z,4.80
2018-03-27T17:29:37.573Z,4.37
2018-03-27T17:32:05.246Z,4.53
2018-03-27T17:34:32.883Z,4.57
2018-03-27T17:37:01.264Z,4.30
2018-03-27T17:39:28.922Z,4.65
2018-03-27T17:41:56.593Z,4.97
2018-03-27T17:44:24.381Z,4.50
2018-03-27T17:46:52.778Z,4.43
2018-03-27T17:49:20.419Z,4.47
2018-03-27T17:51:48.826Z,4.68
2018-03-27T17:54:16.427Z,4.93
2018-03-27T17:56:44.107Z,4.68
2018-03-27T17:59:11.735Z,4.72
2018-03-27T18:01:39.327Z,4.33
2018-03-27T18:04:07.057Z,4.70
2018-03-27T18:06:35.507Z,5.32
2018-03-27T18:09:03.169Z,4.75
2018-03-27T18:11:30.847Z,5.28
2018-03-27T18:13:58.494Z,6.97
2018-03-27T18:16:26.088Z,5.45
2018-03-27T18:18:54.550Z,5.07
2018-03-27T18:21:22.434Z,6.60
2018-03-27T18:23:50.118Z,6.20
2018-03-27T18:26:18.555Z,5.43
2018-03-27T18:28:46.543Z,6.10
2018-03-27T18:31:15.011Z,5.78
2018-03-27T18:33:42.630Z,6.45
2018-03-27T18:36:11.046Z,6.40
2018-03-27T18:38:38.687Z,6.28
2018-03-27T18:41:07.311Z,7.43
2018-03-27T18:43:35.168Z,5.90
2018-03-27T18:46:02.831Z,5.30
2018-03-27T18:48:30.495Z,5.45
2018-03-27T18:50:58.245Z,4.78
2018-03-27T18:53:25.857Z,4.68
2018-03-27T18:55:53.793Z,4.87
2018-03-27T18:58:21.394Z,5.43
2018-03-27T19:00:49.671Z,5.22
2018-03-27T19:03:18.084Z,4.75
2018-03-27T19:05:45.760Z,5.05
2018-03-27T19:08:13.397Z,5.15
2018-03-27T19:10:41.210Z,4.78
2018-03-27T19:13:09.162Z,4.40
2018-03-27T19:15:36.828Z,5.25
2018-03-27T19:18:04.479Z,5.03
2018-03-27T19:20:32.242Z,5.60
2018-03-27T19:22:59.854Z,5.43
2018-03-27T19:25:27.468Z,5.30
2018-03-27T19:27:55.946Z,5.22
2018-03-27T19:30:24.681Z,5.37
2018-03-27T19:32:52.307Z,5.60
2018-03-27T19:35:19.952Z,4.93
2018-03-27T19:37:48.206Z,4.93
2018-03-27T19:40:16.678Z,5.37
2018-03-27T19:42:44.622Z,5.50
2018-03-27T19:45:12.621Z,4.78
2018-03-27T19:47:40.259Z,5.30
2018-03-27T19:50:08.699Z,5.00
2018-03-27T19:52:36.599Z,4.87
2018-03-27T19:55:04.209Z,5.50
2018-03-27T19:57:31.847Z,5.03
2018-03-27T20:00:00.253Z,5.05
2018-03-27T20:02:29.917Z,4.65
2018-03-27T20:04:57.521Z,4.80
2018-03-27T20:07:25.169Z,5.12
2018-03-27T20:09:54.342Z,4.90
2018-03-27T20:12:21.958Z,5.12
2018-03-27T20:14:50.451Z,5.32
2018-03-27T20:17:18.100Z,5.95
2018-03-27T20:19:45.874Z,5.10
2018-03-27T20:22:14.434Z,5.40
2018-03-27T20:24:42.817Z,5.62
2018-03-27T20:27:11.222Z,4.68
2018-03-27T20:29:38.841Z,5.70
2018-03-27T20:32:06.837Z,5.18
2018-03-27T20:34:35.250Z,5.37
2018-03-27T20:37:02.862Z,4.97
2018-03-27T20:39:30.609Z,4.80
2018-03-27T20:41:58.277Z,4.75
2018-03-27T20:44:25.883Z,5.93
2018-03-27T20:46:53.508Z,5.55
2018-03-27T20:49:21.116Z,5.25
2018-03-27T20:51:48.746Z,4.95
2018-03-27T20:54:16.379Z,4.78
2018-03-27T20:56:43.999Z,5.57
2018-03-27T20:59:13.127Z,4.78
2018-03-27T21:01:42.126Z,4.35
2018-03-27T21:04:10.531Z,4.95
2018-03-27T21:06:38.435Z,4.83
2018-03-27T21:09:06.124Z,4.95
2018-03-27T21:11:33.783Z,4.73
2018-03-27T21:14:01.372Z,4.70
2018-03-27T21:16:29.924Z,4.57
2018-03-27T21:18:57.572Z,4.65
2018-03-27T21:21:25.216Z,4.78
2018-03-27T21:23:52.897Z,4.20
2018-03-27T21:26:20.520Z,4.03
2018-03-27T21:28:48.138Z,4.55
2018-03-27T21:31:15.820Z,4.32
2018-03-27T21:33:43.429Z,4.20
2018-03-27T21:36:11.055Z,4.25
2018-03-27T21:38:38.678Z,4.40
2018-03-27T21:41:07.040Z,3.85
2018-03-27T21:43:35.464Z,4.22
2018-03-27T21:46:03.138Z,4.62
2018-03-27T21:48:30.790Z,4.40
2018-03-27T21:50:58.385Z,4.27
2018-03-27T21:53:26.024Z,4.37
2018-03-27T21:55:54.237Z,4.10
2018-03-27T21:58:21.998Z,4.00
2018-03-27T22:00:49.915Z,4.07
2018-03-27T22:03:17.541Z,4.32
2018-03-27T22:05:45.600Z,4.00
2018-03-27T22:08:13.262Z,4.32
2018-03-27T22:10:40.919Z,5.00
2018-03-27T22:13:08.578Z,4.25
2018-03-27T22:15:36.922Z,4.27
2018-03-27T22:18:04.562Z,4.43
2018-03-27T22:20:32.174Z,4.30
2018-03-27T22:22:59.795Z,4.28
2018-03-27T22:25:27.443Z,4.05
2018-03-27T22:27:55.112Z,4.47
2018-03-27T22:30:22.755Z,4.50
2018-03-27T22:32:51.118Z,4.28
2018-03-27T22:35:19.642Z,4.57
2018-03-27T22:37:47.249Z,4.50
2018-03-27T22:40:14.898Z,4.18
2018-03-27T22:42:42.536Z,4.03
2018-03-27T22:45:10.183Z,3.72
2018-03-27T22:47:38.575Z,4.62
2018-03-27T22:50:06.192Z,3.95
2018-03-27T22:52:33.831Z,4.45
2018-03-27T22:55:01.456Z,3.80
2018-03-27T22:57:29.869Z,3.97
2018-03-27T22:59:57.765Z,4.03
2018-03-27T23:02:25.394Z,4.60
2018-03-27T23:04:53.803Z,4.50
2018-03-27T23:07:21.464Z,4.57
2018-03-27T23:09:49.106Z,4.12
2018-03-27T23:12:17.514Z,4.50
2018-03-27T23:14:46.071Z,4.07
2018-03-27T23:17:13.685Z,4.20
2018-03-27T23:19:41.769Z,4.25
2018-03-27T23:22:09.412Z,4.32
2018-03-27T23:24:37.049Z,4.10
2018-03-27T23:27:05.452Z,4.22
2018-03-27T23:29:33.078Z,4.30
2018-03-27T23:32:01.470Z,4.68
2018-03-27T23:34:29.117Z,4.37
2018-03-27T23:36:56.760Z,4.55
2018-03-27T23:39:24.408Z,5.25
2018-03-27T23:41:52.040Z,4.15
2018-03-27T23:44:20.481Z,4.80
2018-03-27T23:46:48.083Z,4.57
2018-03-27T23:49:15.707Z,5.12
2018-03-27T23:51:43.360Z,4.93
2018-03-27T23:54:10.981Z,4.60
2018-03-27T23:56:39.411Z,4.65
2018-03-27T23:59:07.013Z,4.57
